Time;durP1;ratioP1;P1;durP2;ratioP2;P2;SDS_P1;SDS_P2;PMS_P1;PMS_P2;Temp;Humidity;BMP_temperature;BMP_pressure;BME280_temperature;BME280_humidity;BME280_pressure;Samples;Min_cycle;Max_cycle;Signal;HPM_P1;HPM_P2
2021/12/20 00:01:39;;;;;;;5.20;1.60;;;;;;;10.71;63.95;102728.50;5060440;27;124617;-64
2021/12/20 00:04:06;;;;;;;6.85;1.58;;;;;;;10.71;64.02;102720.53;5054887;27;124216;-65
2021/12/20 00:06:33;;;;;;;5.55;1.30;;;;;;;10.71;63.96;102723.19;5034572;27;114634;-65
2021/12/20 00:09:00;;;;;;;4.95;1.30;;;;;;;10.70;64.00;102716.16;5058387;27;114077;-66
2021/12/20 00:11:28;;;;;;;4.40;1.40;;;;;;;10.69;63.75;102722.34;5046661;27;123622;-65
2021/12/20 00:13:55;;;;;;;8.52;1.73;;;;;;;10.68;64.00;102712.66;5050717;27;122965;-65
2021/12/20 00:16:22;;;;;;;4.93;1.63;;;;;;;10.67;63.96;102715.31;5043444;27;113192;-65
2021/12/20 00:18:51;;;;;;;8.25;1.60;;;;;;;10.65;64.01;102706.53;5065615;27;115125;-66
2021/12/20 00:21:18;;;;;;;5.50;1.80;;;;;;;10.64;63.92;102705.66;5045943;27;122828;-67
2021/12/20 00:23:45;;;;;;;4.90;1.73;;;;;;;10.64;63.59;102710.97;5059786;27;124644;-66
2021/12/20 00:26:13;;;;;;;5.55;1.70;;;;;;;10.63;63.74;102714.50;5045368;27;113355;-65
2021/12/20 00:28:40;;;;;;;6.20;1.60;;;;;;;10.64;63.74;102700.34;5061736;27;114214;-65
2021/12/20 00:31:07;;;;;;;8.32;1.75;;;;;;;10.63;63.81;102698.59;5059734;27;123577;-64
2021/12/20 00:33:35;;;;;;;7.32;1.77;;;;;;;10.63;63.88;102706.53;5053208;27;124494;-66
2021/12/20 00:36:04;;;;;;;7.35;1.55;;;;;;;10.62;63.54;102702.13;5062476;27;113967;-65
2021/12/20 00:41:17;;;;;;;7.90;1.63;;;;;;;10.59;63.69;102707.50;5043268;27;124585;-65
2021/12/20 00:43:44;;;;;;;10.45;2.13;;;;;;;10.60;63.70;102709.22;5044655;27;123864;-65
2021/12/20 00:46:11;;;;;;;8.80;1.88;;;;;;;10.58;63.59;102711.03;5062128;27;114101;-65
2021/12/20 00:48:39;;;;;;;5.50;1.65;;;;;;;10.57;63.45;102711.94;5053719;27;114002;-65
2021/12/20 00:51:06;;;;;;;6.03;1.45;;;;;;;10.56;63.52;102720.78;5061821;27;124771;-65
2021/12/20 00:53:33;;;;;;;5.57;1.55;;;;;;;10.55;63.68;102713.75;5052106;27;123977;-65
2021/12/20 00:56:00;;;;;;;4.25;1.40;;;;;;;10.54;63.49;102714.63;5058233;27;114905;-65
2021/12/20 00:58:28;;;;;;;7.03;1.58;;;;;;;10.52;63.64;102716.44;5054392;27;113101;-65
2021/12/20 01:00:56;;;;;;;4.88;1.67;;;;;;;10.53;63.61;102712.91;5066346;27;124487;-65
2021/12/20 01:03:24;;;;;;;8.93;1.60;;;;;;;10.53;63.44;102712.91;5061622;27;124531;-65
2021/12/20 01:05:52;;;;;;;7.88;2.00;;;;;;;10.56;63.73;102717.25;5051773;27;115235;-65
2021/12/20 01:08:20;;;;;;;8.15;1.70;;;;;;;10.57;63.48;102711.94;5040289;27;114894;-65
2021/12/20 01:10:54;;;;;;;6.15;1.88;;;;;;;10.57;63.57;102704.00;5060956;27;125137;-65
2021/12/20 01:13:24;;;;;;;4.95;1.77;;;;;;;10.56;63.48;102702.22;5065350;27;123848;-65
2021/12/20 01:15:53;;;;;;;7.53;1.70;;;;;;;10.56;63.21;102698.72;5054700;27;114182;-65
2021/12/20 01:18:21;;;;;;;10.23;1.50;;;;;;;10.54;63.42;102703.16;5054617;27;113950;-65
2021/12/20 01:20:49;;;;;;;5.60;1.45;;;;;;;10.52;63.24;102705.84;5048901;27;123949;-65
2021/12/20 01:23:18;;;;;;;8.85;1.60;;;;;;;10.49;63.50;102700.56;5042089;27;123723;-65
2021/12/20 01:25:46;;;;;;;10.48;1.65;;;;;;;10.49;63.43;102700.56;5061615;27;114295;-65
2021/12/20 01:28:14;;;;;;;8.10;1.60;;;;;;;10.49;63.33;102705.88;5057200;27;114200;-65
2021/12/20 01:30:41;;;;;;;8.68;1.58;;;;;;;10.48;63.34;102704.13;5034346;27;123923;-66
2021/12/20 01:33:11;;;;;;;9.77;1.80;;;;;;;10.48;63.37;102704.13;5049601;27;124281;-64
2021/12/20 01:35:39;;;;;;;8.45;1.80;;;;;;;10.47;63.42;102707.66;5054811;27;114406;-64
2021/12/20 01:38:07;;;;;;;11.02;1.80;;;;;;;10.45;63.37;102709.47;5053137;27;114209;-64
2021/12/20 01:40:35;;;;;;;9.18;1.73;;;;;;;10.44;63.07;102713.03;5062208;27;123998;-64
2021/12/20 01:43:03;;;;;;;7.40;1.60;;;;;;;10.44;63.02;102713.03;5061596;27;124024;-64
2021/12/20 01:45:31;;;;;;;10.85;1.70;;;;;;;10.42;63.04;102710.41;5054240;27;114091;-64
2021/12/20 01:48:11;;;;;;;8.77;1.60;;;;;;;10.41;63.27;102707.75;5046401;27;113770;-64
2021/12/20 01:53:23;;;;;;;6.37;1.63;;;;;;;10.40;63.25;102700.72;5059310;27;124653;-64
2021/12/20 01:55:51;;;;;;;8.98;1.63;;;;;;;10.40;63.03;102695.44;5055383;27;113879;-64
2021/12/20 01:58:19;;;;;;;8.27;1.48;;;;;;;10.39;62.86;102688.38;5064151;27;114901;-64
2021/12/20 02:03:38;;;;;;;10.02;1.92;;;;;;;10.36;63.06;102699.91;5048538;27;122878;-65
2021/12/20 02:06:12;;;;;;;6.65;1.88;;;;;;;10.35;63.04;102691.97;5057778;27;114843;-65
2021/12/20 02:08:40;;;;;;;7.07;1.70;;;;;;;10.31;63.01;102692.00;5039064;27;115079;-65
2021/12/20 02:11:09;;;;;;;12.30;1.70;;;;;;;10.29;62.76;102699.06;5062463;27;124637;-65
2021/12/20 02:13:38;;;;;;;10.27;1.58;;;;;;;10.28;62.60;102692.03;5057373;27;124029;-65
2021/12/20 02:16:07;;;;;;;10.98;1.67;;;;;;;10.27;62.81;102700.84;5058204;27;114223;-65
2021/12/20 02:18:35;;;;;;;11.70;1.95;;;;;;;10.27;62.76;102695.56;5054404;27;114038;-65
2021/12/20 02:21:02;;;;;;;14.65;1.92;;;;;;;10.28;62.65;102702.63;5057926;27;123714;-66
2021/12/20 02:23:29;;;;;;;7.45;2.00;;;;;;;10.28;62.47;102686.72;5061533;27;123612;-65
2021/12/20 02:25:56;;;;;;;14.00;2.05;;;;;;;10.29;62.62;102692.91;5059274;27;114366;-65
2021/12/20 02:28:24;;;;;;;12.82;1.75;;;;;;;10.27;62.35;102684.97;5058280;27;113840;-65
2021/12/20 02:38:48;;;;;;;9.32;1.70;;;;;;;10.20;62.41;102678.00;5058589;27;116273;-66
2021/12/20 02:41:22;;;;;;;11.20;1.75;;;;;;;10.20;62.45;102688.59;5058094;27;124437;-66
2021/12/20 02:43:56;;;;;;;7.13;1.55;;;;;;;10.19;62.23;102686.84;5065568;27;124660;-65
2021/12/20 02:48:55;;;;;;;9.73;1.90;;;;;;;10.15;62.00;102679.81;5066188;27;114764;-64
2021/12/20 02:51:25;;;;;;;7.70;1.75;;;;;;;10.13;62.06;102676.31;5051481;27;122941;-64
2021/12/20 02:53:55;;;;;;;11.10;2.30;;;;;;;10.13;61.92;102676.31;5062140;27;124254;-65
2021/12/20 02:56:22;;;;;;;13.30;2.10;;;;;;;10.14;62.21;102684.25;5045192;27;114237;-65
2021/12/20 02:58:50;;;;;;;9.63;2.00;;;;;;;10.15;62.03;102677.19;5058331;27;114823;-65
2021/12/20 03:01:18;;;;;;;12.00;1.92;;;;;;;10.18;62.11;102685.09;5068560;27;123100;-64
2021/12/20 03:03:47;;;;;;;10.57;1.77;;;;;;;10.17;61.70;102683.34;5060819;27;124422;-65
2021/12/20 03:06:23;;;;;;;9.43;2.03;;;;;;;10.17;61.83;102683.34;5055851;27;114143;-65
2021/12/20 03:08:52;;;;;;;11.02;1.80;;;;;;;10.18;61.46;102684.22;5064609;27;114150;-65
2021/12/20 03:11:22;;;;;;;6.63;1.80;;;;;;;10.19;61.85;102688.59;5056358;27;124209;-65
2021/12/20 03:13:53;;;;;;;8.27;1.60;;;;;;;10.19;61.54;102689.50;5060474;27;124193;-65
2021/12/20 03:16:20;;;;;;;14.18;1.90;;;;;;;10.19;61.24;102686.84;5067421;27;114289;-65
2021/12/20 03:18:48;;;;;;;9.88;1.50;;;;;;;10.18;61.77;102695.69;5064279;27;114382;-65
2021/12/20 03:21:15;;;;;;;12.25;1.60;;;;;;;10.20;61.64;102682.44;5058093;27;123843;-64
2021/12/20 03:23:42;;;;;;;12.68;1.95;;;;;;;10.20;61.48;102683.28;5062609;27;123910;-65
2021/12/20 03:26:09;;;;;;;11.60;1.88;;;;;;;10.20;61.42;102687.72;5063742;27;114361;-65
2021/12/20 03:28:36;;;;;;;10.18;1.55;;;;;;;10.19;61.24;102686.84;5068962;27;117572;-65
2021/12/20 03:31:03;;;;;;;13.90;2.10;;;;;;;10.17;61.66;102699.25;5067746;27;124141;-65
2021/12/20 03:33:30;;;;;;;11.82;1.52;;;;;;;10.15;61.16;102693.06;5066205;27;125027;-65
2021/12/20 03:35:57;;;;;;;10.57;1.88;;;;;;;10.15;61.31;102695.72;5058424;27;115283;-65
2021/12/20 03:38:25;;;;;;;10.02;1.98;;;;;;;10.16;61.36;102691.31;5062148;27;115050;-65
2021/12/20 03:40:52;;;;;;;13.95;2.17;;;;;;;10.13;61.34;102686.91;5064349;27;124479;-65
2021/12/20 03:43:19;;;;;;;8.52;1.90;;;;;;;10.12;61.27;102683.41;5058184;27;123975;-65
2021/12/20 03:45:49;;;;;;;15.30;2.40;;;;;;;10.11;61.32;102679.03;5064006;27;113929;-65
2021/12/20 03:48:16;;;;;;;8.68;1.73;;;;;;;10.12;61.26;102685.19;5058472;27;112964;-65
2021/12/20 03:50:43;;;;;;;9.05;1.85;;;;;;;10.13;61.33;102681.63;5043873;27;122830;-65
2021/12/20 03:53:11;;;;;;;8.13;1.70;;;;;;;10.14;61.26;102683.38;5068525;27;123765;-65
2021/12/20 03:55:38;;;;;;;9.98;1.70;;;;;;;10.16;61.38;102686.03;5051389;27;114566;-66
2021/12/20 03:58:05;;;;;;;11.60;1.55;;;;;;;10.17;61.42;102675.41;5065067;27;113960;-65
2021/12/20 04:00:33;;;;;;;14.90;1.80;;;;;;;10.15;61.33;102674.53;5059215;27;124664;-65
2021/12/20 04:03:02;;;;;;;10.55;1.70;;;;;;;10.12;61.24;102679.88;5059642;27;124481;-65
2021/12/20 04:05:30;;;;;;;10.82;1.60;;;;;;;10.12;61.34;102674.59;5040659;27;114115;-65
2021/12/20 04:07:57;;;;;;;7.38;1.48;;;;;;;10.13;61.36;102676.31;5045609;27;112937;-65
2021/12/20 04:10:24;;;;;;;9.15;1.50;;;;;;;10.12;61.14;102674.59;5044204;27;122811;-65
2021/12/20 04:12:51;;;;;;;10.38;1.40;;;;;;;10.11;60.97;102684.31;5063078;27;124538;-65
2021/12/20 04:15:18;;;;;;;14.65;1.60;;;;;;;10.13;61.10;102686.91;5054891;27;114956;-65
2021/12/20 04:17:46;;;;;;;9.60;1.50;;;;;;;10.12;61.01;102679.88;5066302;27;113870;-65
2021/12/20 04:20:13;;;;;;;8.95;1.63;;;;;;;10.11;61.07;102683.41;5056762;27;123994;-64
2021/12/20 04:22:41;;;;;;;12.65;1.98;;;;;;;10.11;60.77;102672.81;5067954;27;123754;-65
2021/12/20 04:25:09;;;;;;;11.73;1.65;;;;;;;10.11;60.89;102678.13;5062974;27;115519;-65
2021/12/20 04:27:36;;;;;;;9.70;1.70;;;;;;;10.11;61.15;102678.13;5069010;27;114754;-65
2021/12/20 04:30:10;;;;;;;13.38;1.75;;;;;;;10.10;61.07;102676.38;5058204;27;124004;-65
2021/12/20 04:32:39;;;;;;;5.60;1.60;;;;;;;10.09;61.03;102669.31;5059231;27;123823;-65
2021/12/20 04:35:09;;;;;;;11.90;1.98;;;;;;;10.09;61.14;102680.78;5063405;27;115000;-65
2021/12/20 04:37:36;;;;;;;14.18;2.05;;;;;;;10.10;60.89;102681.69;5057278;27;113487;-67
2021/12/20 04:40:08;;;;;;;11.65;1.60;;;;;;;10.10;61.01;102676.38;5063212;27;123789;-65
2021/12/20 04:42:35;;;;;;;11.18;1.67;;;;;;;10.10;60.97;102689.63;5061131;27;123583;-65
2021/12/20 04:45:03;;;;;;;6.25;1.50;;;;;;;10.12;60.89;102695.78;5031921;27;113161;-65
2021/12/20 04:47:30;;;;;;;13.50;1.70;;;;;;;10.12;60.80;102690.47;5062979;27;114100;-65
2021/12/20 04:49:57;;;;;;;11.18;1.50;;;;;;;10.11;60.87;102689.59;5065948;27;125388;-65
2021/12/20 04:52:25;;;;;;;9.88;2.35;;;;;;;10.11;61.15;102688.72;5058902;27;125129;-65
2021/12/20 04:54:52;;;;;;;11.02;1.80;;;;;;;10.12;61.19;102685.19;5059584;27;113973;-65
2021/12/20 04:57:20;;;;;;;8.48;1.50;;;;;;;10.10;61.03;102689.63;5056534;27;113631;-65
2021/12/20 04:59:47;;;;;;;9.48;1.83;;;;;;;10.08;60.92;102688.78;5064844;27;124755;-65
2021/12/20 05:02:14;;;;;;;9.80;1.60;;;;;;;10.06;60.97;102690.56;5059846;27;123758;-65
2021/12/20 05:04:42;;;;;;;10.13;2.03;;;;;;;10.03;60.87;102686.16;5059307;27;114610;-65
2021/12/20 05:07:09;;;;;;;13.57;2.17;;;;;;;10.04;60.84;102700.28;5049124;27;112840;-65
2021/12/20 05:09:39;;;;;;;11.77;1.83;;;;;;;10.02;61.01;102696.78;5058846;27;123829;-65
2021/12/20 05:12:14;;;;;;;10.75;1.75;;;;;;;10.03;60.96;102695.88;5058609;27;124656;-65
2021/12/20 05:14:43;;;;;;;9.02;1.60;;;;;;;10.01;60.77;102693.25;5063039;27;115236;-65
2021/12/20 05:17:13;;;;;;;12.98;1.85;;;;;;;10.01;60.56;102692.38;5069524;27;115276;-65
2021/12/20 05:19:44;;;;;;;10.95;1.85;;;;;;;9.99;60.82;102694.19;5064653;27;124255;-66
2021/12/20 05:22:12;;;;;;;9.95;2.15;;;;;;;9.94;60.77;102703.06;5065865;27;123731;-65
2021/12/20 05:24:39;;;;;;;10.18;1.63;;;;;;;9.91;60.80;102689.84;5036134;27;113830;-65
2021/12/20 05:27:06;;;;;;;9.70;1.77;;;;;;;9.90;60.68;102692.50;5061787;27;113882;-66
2021/12/20 05:29:33;;;;;;;10.20;1.83;;;;;;;9.87;60.72;102701.38;5058894;27;124456;-65
2021/12/20 05:32:04;;;;;;;9.70;1.85;;;;;;;9.85;60.72;102697.88;5058925;27;124176;-65
2021/12/20 05:34:31;;;;;;;10.10;1.63;;;;;;;9.83;60.51;102694.38;5054637;27;114368;-65
2021/12/20 05:36:59;;;;;;;10.63;1.77;;;;;;;9.83;60.90;102699.66;5062728;27;113877;-65
2021/12/20 05:39:27;;;;;;;10.20;1.80;;;;;;;9.82;60.45;102703.19;5056811;27;124420;-65
2021/12/20 05:41:54;;;;;;;11.13;1.75;;;;;;;9.83;60.61;102699.66;5045005;27;124329;-65
2021/12/20 05:44:22;;;;;;;13.27;1.67;;;;;;;9.82;60.32;102692.63;5040077;27;113396;-65
2021/12/20 05:46:49;;;;;;;13.57;2.30;;;;;;;9.83;60.41;102694.38;5061832;27;113998;-65
2021/12/20 05:49:16;;;;;;;9.45;1.85;;;;;;;9.84;60.53;102698.75;5056416;27;124151;-65
2021/12/20 05:51:43;;;;;;;8.48;1.60;;;;;;;9.83;60.57;102699.66;5064603;27;123835;-65
2021/12/20 05:54:10;;;;;;;14.00;2.15;;;;;;;9.83;60.44;102683.78;5040948;27;113021;-65
2021/12/20 05:56:37;;;;;;;11.52;2.25;;;;;;;9.83;60.43;102682.91;5059488;27;114097;-65
2021/12/20 05:59:04;;;;;;;13.00;2.60;;;;;;;9.81;60.37;102698.78;5043164;27;123338;-65
2021/12/20 06:01:31;;;;;;;10.85;2.20;;;;;;;9.82;60.42;102697.91;5058564;27;123732;-65
2021/12/20 06:03:59;;;;;;;14.13;2.53;;;;;;;9.84;60.30;102700.53;5055912;27;114046;-65
2021/12/20 06:06:31;;;;;;;12.15;2.15;;;;;;;9.84;60.07;102700.53;5053665;27;114808;-65
2021/12/20 06:08:58;;;;;;;8.50;1.95;;;;;;;9.84;60.38;102696.13;5063593;27;124627;-65
2021/12/20 06:11:26;;;;;;;8.45;1.35;;;;;;;9.84;60.22;102701.41;5060370;27;124235;-65
2021/12/20 06:13:53;;;;;;;9.43;1.90;;;;;;;9.86;59.93;102699.63;5059739;27;114123;-65
2021/12/20 06:16:20;;;;;;;8.73;1.45;;;;;;;9.86;59.78;102699.63;5065805;27;113782;-66
2021/12/20 06:18:51;;;;;;;12.55;2.15;;;;;;;9.88;60.22;102694.31;5057714;27;124618;-65
2021/12/20 06:21:18;;;;;;;11.90;1.95;;;;;;;9.89;60.10;102696.94;5048784;27;123971;-65
2021/12/20 06:23:45;;;;;;;12.20;2.30;;;;;;;9.90;59.71;102696.03;5070531;27;114043;-65
2021/12/20 06:26:13;;;;;;;9.88;2.03;;;;;;;9.90;60.01;102711.91;5044125;27;112839;-65
2021/12/20 06:28:41;;;;;;;9.82;2.05;;;;;;;9.91;60.04;102713.69;5050703;27;123837;-66
2021/12/20 06:31:08;;;;;;;8.63;2.08;;;;;;;9.90;59.70;102706.63;5064127;27;123792;-66
2021/12/20 06:33:36;;;;;;;9.73;1.80;;;;;;;9.90;59.91;102717.19;5064861;27;114317;-65
2021/12/20 06:36:03;;;;;;;12.40;1.98;;;;;;;9.89;59.64;102720.75;5059663;27;114049;-65
2021/12/20 06:38:32;;;;;;;9.43;1.60;;;;;;;9.88;59.38;102719.00;5067602;27;124034;-65
2021/12/20 06:40:59;;;;;;;11.73;1.92;;;;;;;9.85;59.81;102716.41;5064448;27;126274;-65
2021/12/20 06:43:26;;;;;;;12.77;2.33;;;;;;;9.84;59.29;102714.63;5049683;27;114135;-65
2021/12/20 06:45:53;;;;;;;11.77;1.67;;;;;;;9.84;59.61;102721.72;5064014;27;114012;-65
2021/12/20 06:48:25;;;;;;;9.38;1.70;;;;;;;9.84;59.57;102725.22;5051535;27;122862;-65
2021/12/20 06:50:52;;;;;;;11.43;1.90;;;;;;;9.84;59.77;102722.56;5057715;27;124592;-65
2021/12/20 06:53:20;;;;;;;5.90;1.52;;;;;;;9.86;59.61;102723.44;5041818;27;114393;-65
2021/12/20 06:55:47;;;;;;;18.55;2.15;;;;;;;9.86;59.63;102726.06;5050068;27;114185;-65
2021/12/20 06:58:14;;;;;;;8.27;1.50;;;;;;;9.86;59.30;102730.50;5060227;27;123868;-65
2021/12/20 07:00:41;;;;;;;13.07;1.90;;;;;;;9.85;59.37;102734.94;5063599;27;124288;-65
2021/12/20 07:03:09;;;;;;;7.03;1.85;;;;;;;9.85;59.40;102734.03;5068883;27;114318;-65
2021/12/20 07:05:36;;;;;;;11.20;1.60;;;;;;;9.85;58.99;102729.63;5067195;27;113775;-65
2021/12/20 07:08:03;;;;;;;7.60;1.50;;;;;;;9.86;59.10;102731.38;5066027;27;123975;-65
2021/12/20 07:10:31;;;;;;;7.38;2.25;;;;;;;9.87;59.39;102733.13;5062652;27;124765;-65
2021/12/20 07:12:58;;;;;;;8.82;1.70;;;;;;;9.86;59.24;102736.66;5058860;27;114628;-65
2021/12/20 07:15:27;;;;;;;10.70;1.63;;;;;;;9.87;59.23;102738.44;5065624;27;113894;-65
2021/12/20 07:17:54;;;;;;;12.93;1.60;;;;;;;9.87;59.13;102738.44;5069280;27;124114;-65
2021/12/20 07:20:21;;;;;;;11.00;1.70;;;;;;;9.86;59.18;102736.66;5053110;27;123842;-65
2021/12/20 07:22:48;;;;;;;12.40;2.10;;;;;;;9.86;59.25;102731.38;5051550;27;114547;-65
2021/12/20 07:25:15;;;;;;;9.38;1.70;;;;;;;9.86;59.20;102734.03;5056194;27;114260;-65
2021/12/20 07:27:47;;;;;;;11.27;1.88;;;;;;;9.85;59.18;102740.22;5064662;27;124785;-65
2021/12/20 07:30:14;;;;;;;11.70;1.85;;;;;;;9.86;59.42;102741.97;5060307;27;124562;-65
2021/12/20 07:32:42;;;;;;;10.32;1.90;;;;;;;9.86;59.28;102741.97;5063671;27;114635;-65
2021/12/20 07:35:11;;;;;;;10.60;1.45;;;;;;;9.85;59.05;102742.88;5047209;27;112874;-65
2021/12/20 07:37:38;;;;;;;8.93;1.60;;;;;;;9.85;58.89;102740.22;5060482;27;124076;-65
2021/12/20 07:40:07;;;;;;;12.70;2.15;;;;;;;9.85;59.08;102734.03;5063778;27;123572;-65
2021/12/20 07:42:34;;;;;;;8.68;1.70;;;;;;;9.85;59.19;102740.22;5059958;27;115148;-65
2021/12/20 07:45:02;;;;;;;6.95;1.48;;;;;;;9.84;59.12;102743.75;5054126;27;114692;-65
2021/12/20 07:47:49;;;;;;;8.48;1.75;;;;;;;9.83;59.07;102742.00;5059253;27;123931;-65
2021/12/20 07:50:18;;;;;;;13.82;1.60;;;;;;;9.82;58.74;102742.91;5066743;27;123960;-65
2021/12/20 07:52:46;;;;;;;11.63;1.40;;;;;;;9.80;58.90;102742.03;5044571;27;113368;-65
2021/12/20 07:55:14;;;;;;;6.85;1.67;;;;;;;9.80;58.79;102741.16;5065974;27;114920;-66
2021/12/20 07:57:41;;;;;;;9.63;1.30;;;;;;;9.80;58.93;102746.47;5035190;27;123046;-65
2021/12/20 08:00:10;;;;;;;8.55;1.80;;;;;;;9.80;58.87;102752.63;5065490;27;124229;-65
2021/12/20 08:02:41;;;;;;;10.20;2.05;;;;;;;9.80;58.91;102742.03;5069254;27;113721;-65
2021/12/20 08:05:09;;;;;;;9.55;1.55;;;;;;;9.81;58.90;102749.06;5064455;27;114645;-65
2021/12/20 08:07:36;;;;;;;9.35;1.42;;;;;;;9.81;58.67;102748.19;5067416;27;123824;-65
2021/12/20 08:10:07;;;;;;;5.88;1.27;;;;;;;9.80;58.99;102751.75;5050048;27;122366;-65
2021/12/20 08:12:35;;;;;;;10.82;1.67;;;;;;;9.78;59.13;102751.75;5072388;27;114638;-65
2021/12/20 08:15:03;;;;;;;11.15;1.50;;;;;;;9.79;58.64;102756.16;5072070;27;113930;-65
2021/12/20 08:17:31;;;;;;;10.15;1.77;;;;;;;9.76;58.89;102750.91;5072921;27;124819;-65
2021/12/20 08:19:59;;;;;;;7.20;1.42;;;;;;;9.75;58.85;102751.78;5072112;27;123513;-65
2021/12/20 08:22:27;;;;;;;8.40;1.80;;;;;;;9.76;58.71;102758.84;5073133;27;114127;-65
2021/12/20 08:24:54;;;;;;;8.70;1.88;;;;;;;9.76;59.12;102761.50;5071590;27;113881;-65
2021/12/20 08:27:21;;;;;;;11.73;1.60;;;;;;;9.79;58.85;102761.44;5071406;27;124034;-65
2021/12/20 08:29:48;;;;;;;8.15;1.75;;;;;;;9.82;59.17;102765.84;5071079;27;124708;-64
2021/12/20 08:32:15;;;;;;;10.80;1.85;;;;;;;9.83;58.66;102768.47;5071836;27;115718;-64
2021/12/20 08:34:43;;;;;;;11.95;1.80;;;;;;;9.84;58.66;102770.22;5070681;27;114785;-64
2021/12/20 08:37:10;;;;;;;8.63;1.92;;;;;;;9.85;58.52;102766.69;5053255;27;122915;-65
2021/12/20 08:39:37;;;;;;;10.25;1.88;;;;;;;9.87;58.97;102770.19;5072041;27;124457;-65
2021/12/20 08:42:05;;;;;;;8.30;1.80;;;;;;;9.87;58.62;102769.28;5071161;27;114959;-65
2021/12/20 08:44:33;;;;;;;10.23;1.90;;;;;;;9.89;58.47;102773.69;5072111;27;114147;-65
2021/12/20 08:47:01;;;;;;;11.07;1.90;;;;;;;9.91;58.39;102771.91;5071853;27;124206;-64
2021/12/20 08:49:28;;;;;;;7.50;1.63;;;;;;;9.91;58.76;102777.19;5072780;27;124198;-64
2021/12/20 08:51:56;;;;;;;16.52;1.83;;;;;;;9.92;58.50;102776.28;5072146;27;114235;-65
2021/12/20 08:54:24;;;;;;;9.35;1.67;;;;;;;9.96;58.83;102770.97;5053098;27;113877;-66
2021/12/20 08:56:51;;;;;;;7.20;1.55;;;;;;;9.97;58.49;102775.38;5037603;27;122921;-65
2021/12/20 08:59:19;;;;;;;13.48;2.03;;;;;;;9.96;58.76;102774.47;5053372;27;124016;-65
2021/12/20 09:01:46;;;;;;;9.07;1.92;;;;;;;9.98;58.48;102772.69;5070539;27;114136;-65
2021/12/20 09:04:13;;;;;;;7.40;1.95;;;;;;;10.00;58.42;102770.03;5068588;27;114072;-65
2021/12/20 09:06:42;;;;;;;8.25;1.85;;;;;;;10.01;58.83;102779.75;5057861;27;124020;-65
2021/12/20 09:09:13;;;;;;;9.30;1.73;;;;;;;10.02;58.43;102778.84;5049155;27;125321;-65
2021/12/20 09:11:41;;;;;;;10.82;2.20;;;;;;;10.04;58.74;102777.94;5052811;27;113890;-65
2021/12/20 09:14:12;;;;;;;10.98;2.05;;;;;;;10.06;58.49;102775.28;5066962;27;114008;-65
2021/12/20 09:16:40;;;;;;;9.18;1.90;;;;;;;10.07;58.44;102784.97;5061176;27;125928;-65
2021/12/20 09:20:06;;;;;;;8.80;1.50;;;;;;;10.08;58.56;102786.72;5059054;27;124002;-65
2021/12/20 09:23:26;;;;;;;11.00;1.70;;;;;;;10.06;58.63;102780.56;5044545;27;115675;-64
2021/12/20 09:25:53;;;;;;;7.97;1.70;;;;;;;10.05;58.58;102789.41;5062553;27;114947;-65
2021/12/20 09:28:20;;;;;;;6.65;1.50;;;;;;;10.06;58.47;102785.88;5048337;27;123320;-64
2021/12/20 09:30:48;;;;;;;10.40;1.77;;;;;;;10.09;58.46;102785.81;5062479;27;123555;-64
2021/12/20 09:33:15;;;;;;;7.13;1.70;;;;;;;10.12;58.52;102788.44;5057077;27;114643;-65
2021/12/20 09:35:44;;;;;;;12.55;1.90;;;;;;;10.17;58.68;102794.56;5042711;27;113847;-65
2021/12/20 09:38:16;;;;;;;10.00;1.67;;;;;;;10.22;58.68;102798.00;5044097;27;123503;-65
2021/12/20 09:41:12;;;;;;;10.07;1.85;;;;;;;10.26;58.28;102805.03;5041029;27;123941;-65
2021/12/20 09:43:55;;;;;;;7.53;1.77;;;;;;;10.27;58.37;102805.91;5044877;27;112157;-65
2021/12/20 09:46:24;;;;;;;5.45;1.98;;;;;;;10.29;58.32;102798.81;5061921;27;113884;-65
2021/12/20 09:48:52;;;;;;;10.77;1.88;;;;;;;10.29;58.13;102799.69;5060969;27;124760;-64
2021/12/20 09:51:20;;;;;;;5.72;1.42;;;;;;;10.29;58.35;102810.28;5056416;27;123752;-64
2021/12/20 09:53:47;;;;;;;10.55;1.63;;;;;;;10.26;57.89;102799.72;5069351;27;114283;-65
2021/12/20 09:56:17;;;;;;;11.50;1.88;;;;;;;10.25;57.98;102808.56;5069418;27;114295;-65
2021/12/20 09:58:47;;;;;;;6.68;1.30;;;;;;;10.24;57.92;102814.75;5048498;27;123915;-65
2021/12/20 10:01:15;;;;;;;12.40;2.08;;;;;;;10.24;58.00;102816.53;5065048;27;124711;-65
2021/12/20 10:03:45;;;;;;;6.05;1.55;;;;;;;10.21;57.68;102812.16;5070291;27;114068;-65
2021/12/20 10:06:13;;;;;;;9.00;1.60;;;;;;;10.20;57.94;102821.00;5037303;27;113251;-64
2021/12/20 10:08:50;;;;;;;16.45;2.13;;;;;;;10.20;57.98;102815.69;5071140;27;124773;-64
2021/12/20 10:11:18;;;;;;;9.45;1.98;;;;;;;10.20;58.02;102821.00;5052921;27;124173;-64
2021/12/20 10:13:46;;;;;;;10.95;1.75;;;;;;;10.19;57.92;102813.97;5068519;27;115075;-64
2021/12/20 10:16:20;;;;;;;13.32;1.83;;;;;;;10.18;57.86;102812.19;5066985;27;114758;-64
2021/12/20 10:18:48;;;;;;;13.13;2.58;;;;;;;10.17;57.86;102815.75;5062374;27;124079;-64
2021/12/20 10:21:16;;;;;;;14.77;2.05;;;;;;;10.17;57.79;102815.75;5070244;27;124133;-64
2021/12/20 10:23:46;;;;;;;12.98;2.20;;;;;;;10.17;57.77;102815.75;5071854;27;114681;-64
2021/12/20 10:26:21;;;;;;;10.30;2.08;;;;;;;10.16;57.80;102808.69;5069364;27;114448;-64
2021/12/20 10:28:52;;;;;;;11.07;1.90;;;;;;;10.19;58.16;102807.75;5051797;27;125037;-64
2021/12/20 10:31:22;;;;;;;14.82;2.58;;;;;;;10.19;58.19;102807.75;5069966;27;124799;-64
2021/12/20 10:33:53;;;;;;;8.30;2.00;;;;;;;10.20;58.22;102810.41;5069055;27;114869;-64
2021/12/20 10:36:21;;;;;;;11.45;2.22;;;;;;;10.22;57.94;102808.59;5053099;27;113080;-64
2021/12/20 10:38:56;;;;;;;13.85;2.65;;;;;;;10.23;58.24;102815.66;5067948;27;123885;-63
2021/12/20 10:41:33;;;;;;;13.98;2.17;;;;;;;10.22;57.77;102813.91;5068745;27;124422;-63
2021/12/20 10:44:15;;;;;;;14.38;2.03;;;;;;;10.22;57.87;102813.91;5050662;27;114142;-63
2021/12/20 10:46:49;;;;;;;10.73;2.28;;;;;;;10.22;58.32;102813.91;5053680;27;113823;-63
2021/12/20 10:49:18;;;;;;;16.17;2.60;;;;;;;10.25;58.17;102813.88;5070708;27;123829;-63
2021/12/20 10:51:48;;;;;;;12.02;2.38;;;;;;;10.26;58.15;102809.44;5067937;27;124031;-64
2021/12/20 10:54:19;;;;;;;17.90;2.35;;;;;;;10.30;58.33;102812.09;5070521;27;114358;-64
2021/12/20 10:56:54;;;;;;;11.52;2.63;;;;;;;10.33;58.10;102811.16;5071401;27;114422;-65
2021/12/20 10:59:23;;;;;;;11.25;2.33;;;;;;;10.33;57.92;102804.09;5071045;27;124500;-64
2021/12/20 11:04:31;;;;;;;16.35;2.35;;;;;;;10.37;58.37;102804.06;5073377;27;115061;-63
2021/12/20 11:09:42;;;;;;;13.45;2.40;;;;;;;10.49;58.56;102803.88;5055598;27;124239;-64
2021/12/20 11:12:13;;;;;;;13.20;2.45;;;;;;;10.54;58.42;102799.41;5072198;27;123726;-64
2021/12/20 11:14:44;;;;;;;13.75;2.50;;;;;;;10.57;58.12;102794.09;5072959;27;114489;-64
2021/12/20 11:17:14;;;;;;;18.17;2.75;;;;;;;10.58;57.93;102800.25;5055754;27;112962;-64
2021/12/20 11:19:45;;;;;;;12.32;2.10;;;;;;;10.57;58.03;102794.09;5073446;27;123897;-64
2021/12/20 11:22:14;;;;;;;17.58;2.40;;;;;;;10.58;58.00;102795.81;5053412;27;124428;-64
2021/12/20 11:24:51;;;;;;;11.27;2.13;;;;;;;10.60;58.08;102794.03;5039693;27;114151;-64
2021/12/20 11:27:30;;;;;;;14.77;2.78;;;;;;;10.62;57.95;102797.53;5033196;27;113852;-64
2021/12/20 11:30:14;;;;;;;21.48;2.92;;;;;;;10.65;58.01;102797.50;5060343;27;124697;-64
2021/12/20 11:32:43;;;;;;;16.02;2.17;;;;;;;10.70;57.93;102790.34;5072841;27;123919;-64
2021/12/20 11:35:15;;;;;;;19.50;2.90;;;;;;;10.75;57.86;102792.06;5055858;27;113600;-64
2021/12/20 11:37:42;;;;;;;11.35;2.70;;;;;;;10.80;57.97;102790.22;5073335;27;114049;-64
2021/12/20 11:40:12;;;;;;;14.27;2.45;;;;;;;10.84;57.92;102791.94;5064143;27;124938;-63
2021/12/20 11:42:39;;;;;;;14.77;2.60;;;;;;;10.87;57.54;102791.91;5069584;27;123771;-64
2021/12/20 11:45:09;;;;;;;12.95;2.17;;;;;;;10.89;57.88;102790.97;5042321;27;113275;-64
2021/12/20 11:47:48;;;;;;;12.52;2.38;;;;;;;10.92;57.73;102790.03;5043502;27;114799;-64